GLO1291 SBSV-SBPL
Flight info
| Callsign | GLO1291 |
|---|---|
| Flight time | 0h 46m |
| Altitude | 32000 |
| Route | BOGUT DCT SIPIR |
| Aircraft | B738/M-SDFGIKLORWX/LB1 |
Departure
| Time | 2026-04-29 17:19 |
|---|---|
| Airport | Deputado Luiz Eduardo Magalhães International Airport (SBSV) |
Arrival
| Time | 2026-04-29 18:05 |
|---|---|
| Airport | Senador Nilo Coelho Airport (SBPL) |
| Time | Latitude | Longitude | Altitude | Speed | Heading |
|---|---|---|---|---|---|
| 2026-04-29 17:08 | -12.91338 | -38.33271 | 43 ft | 0 kts | 173° |
| 2026-04-29 17:14 | -12.91321 | -38.33272 | 43 ft | 4 kts | 183° |
| 2026-04-29 17:14 | -12.91295 | -38.33267 | 43 ft | 4 kts | 210° |
| 2026-04-29 17:15 | -12.91278 | -38.33249 | 43 ft | 3 kts | 254° |
| 2026-04-29 17:15 | -12.91276 | -38.33240 | 43 ft | 0 kts | 257° |
| 2026-04-29 17:17 | -12.91276 | -38.33242 | 43 ft | 1 kts | 257° |
| 2026-04-29 17:17 | -12.91281 | -38.33273 | 43 ft | 8 kts | 270° |
| 2026-04-29 17:17 | -12.91231 | -38.33329 | 43 ft | 14 kts | 319° |
| 2026-04-29 17:17 | -12.91168 | -38.33428 | 42 ft | 19 kts | 303° |
| 2026-04-29 17:18 | -12.91085 | -38.33396 | 42 ft | 17 kts | 75° |
| 2026-04-29 17:18 | -12.91019 | -38.33064 | 46 ft | 83 kts | 78° |
| 2026-04-29 17:18 | -12.90857 | -38.32255 | 50 ft | 146 kts | 78° |
| 2026-04-29 17:18 | -12.90617 | -38.31103 | 399 ft | 172 kts | 78° |
| 2026-04-29 17:19 | -12.90377 | -38.29873 | 1189 ft | 179 kts | 79° |
| 2026-04-29 17:19 | -12.90133 | -38.28581 | 1785 ft | 200 kts | 79° |
| 2026-04-29 17:19 | -12.89670 | -38.27146 | 2005 ft | 227 kts | 54° |
| 2026-04-29 17:19 | -12.88325 | -38.26216 | 2349 ft | 253 kts | 16° |
| 2026-04-29 17:20 | -12.86510 | -38.26219 | 2901 ft | 270 kts | 353° |
| 2026-04-29 17:20 | -12.84608 | -38.26549 | 3769 ft | 275 kts | 352° |
| 2026-04-29 17:20 | -12.82708 | -38.26891 | 4642 ft | 279 kts | 352° |
| 2026-04-29 17:20 | -12.80780 | -38.27222 | 5483 ft | 285 kts | 352° |
| 2026-04-29 17:21 | -12.78811 | -38.27558 | 6311 ft | 287 kts | 352° |
| 2026-04-29 17:21 | -12.76827 | -38.27874 | 7155 ft | 290 kts | 353° |
| 2026-04-29 17:21 | -12.74809 | -38.28173 | 7941 ft | 295 kts | 353° |
| 2026-04-29 17:21 | -12.72763 | -38.28464 | 8699 ft | 299 kts | 353° |
| 2026-04-29 17:22 | -12.70712 | -38.28736 | 9441 ft | 303 kts | 356° |
| 2026-04-29 17:22 | -12.68599 | -38.28895 | 10172 ft | 307 kts | 358° |
| 2026-04-29 17:22 | -12.66406 | -38.29012 | 10482 ft | 327 kts | 359° |
| 2026-04-29 17:22 | -12.64065 | -38.29127 | 10823 ft | 343 kts | 359° |
| 2026-04-29 17:23 | -12.61627 | -38.29254 | 11461 ft | 348 kts | 359° |
| 2026-04-29 17:23 | -12.59233 | -38.29386 | 12181 ft | 351 kts | 359° |
| 2026-04-29 17:23 | -12.56788 | -38.29526 | 12896 ft | 353 kts | 359° |
| 2026-04-29 17:23 | -12.54325 | -38.29669 | 13562 ft | 356 kts | 359° |
| 2026-04-29 17:24 | -12.51839 | -38.29815 | 14220 ft | 359 kts | 359° |
| 2026-04-29 17:24 | -12.49336 | -38.29963 | 14821 ft | 363 kts | 359° |
| 2026-04-29 17:24 | -12.46803 | -38.30112 | 15452 ft | 366 kts | 359° |
| 2026-04-29 17:24 | -12.44258 | -38.30263 | 16077 ft | 368 kts | 359° |
| 2026-04-29 17:25 | -12.41692 | -38.30442 | 16665 ft | 372 kts | 354° |
| 2026-04-29 17:25 | -12.39209 | -38.31286 | 17188 ft | 382 kts | 332° |
| 2026-04-29 17:25 | -12.37156 | -38.33041 | 17753 ft | 390 kts | 311° |
| 2026-04-29 17:25 | -12.35776 | -38.35439 | 18287 ft | 395 kts | 295° |
| 2026-04-29 17:26 | -12.34702 | -38.38042 | 18800 ft | 400 kts | 293° |
| 2026-04-29 17:26 | -12.33672 | -38.40661 | 19272 ft | 404 kts | 293° |
| 2026-04-29 17:26 | -12.32590 | -38.43333 | 19763 ft | 407 kts | 294° |
| 2026-04-29 17:26 | -12.31476 | -38.46005 | 20276 ft | 410 kts | 294° |
| 2026-04-29 17:27 | -12.30338 | -38.48695 | 20749 ft | 413 kts | 295° |
| 2026-04-29 17:27 | -12.29191 | -38.51405 | 21208 ft | 416 kts | 295° |
| 2026-04-29 17:27 | -12.28039 | -38.54128 | 21672 ft | 419 kts | 295° |
| 2026-04-29 17:27 | -12.26878 | -38.56875 | 22117 ft | 422 kts | 295° |
| 2026-04-29 17:28 | -12.25709 | -38.59640 | 22548 ft | 425 kts | 295° |
| 2026-04-29 17:28 | -12.24532 | -38.62426 | 22953 ft | 428 kts | 295° |
| 2026-04-29 17:28 | -12.23347 | -38.65232 | 23361 ft | 431 kts | 295° |
| 2026-04-29 17:28 | -12.22154 | -38.68054 | 23783 ft | 433 kts | 295° |
| 2026-04-29 17:29 | -12.20955 | -38.70892 | 24159 ft | 436 kts | 295° |
| 2026-04-29 17:29 | -12.19761 | -38.73713 | 24531 ft | 439 kts | 295° |
| 2026-04-29 17:29 | -12.18546 | -38.76585 | 24937 ft | 441 kts | 295° |
| 2026-04-29 17:29 | -12.17722 | -38.78531 | 25211 ft | 442 kts | 294° |
| 2026-04-29 17:30 | -12.16100 | -38.82360 | 25724 ft | 444 kts | 294° |
| 2026-04-29 17:30 | -12.14870 | -38.85263 | 26094 ft | 446 kts | 294° |
| 2026-04-29 17:30 | -12.13633 | -38.88181 | 26462 ft | 448 kts | 294° |
| 2026-04-29 17:30 | -12.12390 | -38.91114 | 26823 ft | 450 kts | 294° |
| 2026-04-29 17:31 | -12.11142 | -38.94058 | 27169 ft | 452 kts | 294° |
| 2026-04-29 17:31 | -12.09889 | -38.97012 | 27514 ft | 453 kts | 294° |
| 2026-04-29 17:31 | -12.08634 | -38.99971 | 27857 ft | 455 kts | 294° |
| 2026-04-29 17:31 | -12.07374 | -39.02940 | 28186 ft | 456 kts | 294° |
| 2026-04-29 17:32 | -12.06107 | -39.05924 | 28495 ft | 458 kts | 294° |
| 2026-04-29 17:32 | -12.04838 | -39.08913 | 28804 ft | 460 kts | 294° |
| 2026-04-29 17:32 | -12.03564 | -39.11913 | 29137 ft | 460 kts | 294° |
| 2026-04-29 17:32 | -12.02303 | -39.14880 | 29443 ft | 462 kts | 294° |
| 2026-04-29 17:33 | -12.00970 | -39.17864 | 29712 ft | 463 kts | 301° |
| 2026-04-29 17:33 | -11.99006 | -39.20472 | 29937 ft | 464 kts | 317° |
| 2026-04-29 17:33 | -11.96417 | -39.22415 | 30220 ft | 463 kts | 332° |
| 2026-04-29 17:33 | -11.93577 | -39.23974 | 30503 ft | 464 kts | 333° |
| 2026-04-29 17:34 | -11.90697 | -39.25483 | 30738 ft | 466 kts | 334° |
| 2026-04-29 17:34 | -11.87796 | -39.26986 | 30953 ft | 468 kts | 334° |
| 2026-04-29 17:34 | -11.84881 | -39.28505 | 31181 ft | 470 kts | 334° |
| 2026-04-29 17:34 | -11.81973 | -39.30037 | 31429 ft | 471 kts | 333° |
| 2026-04-29 17:35 | -11.77132 | -39.32619 | 31826 ft | 473 kts | 333° |
| 2026-04-29 17:35 | -11.73226 | -39.34720 | 31983 ft | 473 kts | 333° |
| 2026-04-29 17:35 | -11.70386 | -39.36252 | 31971 ft | 462 kts | 333° |
| 2026-04-29 17:36 | -11.67560 | -39.37776 | 31981 ft | 456 kts | 333° |
| 2026-04-29 17:36 | -11.61967 | -39.40789 | 31998 ft | 454 kts | 333° |
| 2026-04-29 17:37 | -11.56381 | -39.43795 | 31998 ft | 454 kts | 333° |
| 2026-04-29 17:37 | -11.50790 | -39.46801 | 31996 ft | 454 kts | 333° |
| 2026-04-29 17:38 | -11.45193 | -39.49809 | 31994 ft | 454 kts | 333° |
| 2026-04-29 17:38 | -11.39632 | -39.52796 | 31993 ft | 455 kts | 333° |
| 2026-04-29 17:39 | -11.34029 | -39.55805 | 31995 ft | 455 kts | 333° |
| 2026-04-29 17:39 | -11.28411 | -39.58820 | 31987 ft | 456 kts | 333° |
| 2026-04-29 17:40 | -11.22787 | -39.61838 | 31977 ft | 456 kts | 333° |
| 2026-04-29 17:40 | -11.17161 | -39.64854 | 31979 ft | 456 kts | 333° |
| 2026-04-29 17:41 | -11.11578 | -39.67847 | 31983 ft | 456 kts | 333° |
| 2026-04-29 17:41 | -11.05952 | -39.70862 | 31984 ft | 456 kts | 333° |
| 2026-04-29 17:42 | -11.00331 | -39.73872 | 31978 ft | 456 kts | 333° |
| 2026-04-29 17:42 | -10.94655 | -39.76910 | 31993 ft | 466 kts | 333° |
| 2026-04-29 17:43 | -10.88860 | -39.80010 | 31970 ft | 475 kts | 333° |
| 2026-04-29 17:43 | -10.85902 | -39.81593 | 31544 ft | 483 kts | 333° |
| 2026-04-29 17:43 | -10.82933 | -39.83181 | 31082 ft | 479 kts | 333° |
| 2026-04-29 17:43 | -10.80000 | -39.84749 | 30583 ft | 475 kts | 333° |
| 2026-04-29 17:44 | -10.77128 | -39.86286 | 30099 ft | 470 kts | 333° |
| 2026-04-29 17:44 | -10.74242 | -39.87828 | 29607 ft | 466 kts | 333° |
| 2026-04-29 17:44 | -10.71377 | -39.89360 | 29102 ft | 462 kts | 334° |
| 2026-04-29 17:44 | -10.68542 | -39.90874 | 28595 ft | 458 kts | 334° |
| 2026-04-29 17:45 | -10.65733 | -39.92375 | 28091 ft | 454 kts | 334° |
| 2026-04-29 17:45 | -10.62944 | -39.93864 | 27585 ft | 451 kts | 334° |
| 2026-04-29 17:45 | -10.60177 | -39.95342 | 27080 ft | 448 kts | 334° |
| 2026-04-29 17:45 | -10.57430 | -39.96808 | 26581 ft | 445 kts | 335° |
| 2026-04-29 17:46 | -10.54696 | -39.98267 | 26085 ft | 441 kts | 335° |
| 2026-04-29 17:46 | -10.51990 | -39.99711 | 25591 ft | 438 kts | 335° |
| 2026-04-29 17:46 | -10.49296 | -40.01149 | 25098 ft | 435 kts | 335° |
| 2026-04-29 17:46 | -10.46661 | -40.02554 | 24615 ft | 432 kts | 335° |
| 2026-04-29 17:47 | -10.44007 | -40.03969 | 24128 ft | 429 kts | 336° |
| 2026-04-29 17:47 | -10.41382 | -40.05398 | 23634 ft | 428 kts | 333° |
| 2026-04-29 17:47 | -10.38870 | -40.07040 | 22992 ft | 431 kts | 329° |
| 2026-04-29 17:47 | -10.36419 | -40.08778 | 22481 ft | 429 kts | 328° |
| 2026-04-29 17:48 | -10.34000 | -40.10536 | 21993 ft | 426 kts | 327° |
| 2026-04-29 17:48 | -10.31600 | -40.12286 | 21512 ft | 423 kts | 327° |
| 2026-04-29 17:48 | -10.29213 | -40.14014 | 21033 ft | 420 kts | 328° |
| 2026-04-29 17:48 | -10.26842 | -40.15718 | 20560 ft | 417 kts | 328° |
| 2026-04-29 17:49 | -10.24482 | -40.17403 | 20087 ft | 413 kts | 328° |
| 2026-04-29 17:49 | -10.22126 | -40.19078 | 19628 ft | 410 kts | 328° |
| 2026-04-29 17:49 | -10.19800 | -40.20728 | 19160 ft | 407 kts | 328° |
| 2026-04-29 17:49 | -10.17483 | -40.22369 | 18691 ft | 404 kts | 328° |
| 2026-04-29 17:50 | -10.15188 | -40.23994 | 18247 ft | 400 kts | 328° |
| 2026-04-29 17:50 | -10.12914 | -40.25604 | 17799 ft | 397 kts | 328° |
| 2026-04-29 17:50 | -10.10650 | -40.27207 | 17342 ft | 395 kts | 328° |
| 2026-04-29 17:50 | -10.08406 | -40.28794 | 16894 ft | 392 kts | 327° |
| 2026-04-29 17:51 | -10.06178 | -40.30371 | 16447 ft | 390 kts | 327° |
| 2026-04-29 17:51 | -10.03986 | -40.31922 | 16006 ft | 387 kts | 327° |
| 2026-04-29 17:51 | -10.01782 | -40.33481 | 15553 ft | 384 kts | 327° |
| 2026-04-29 17:51 | -9.99591 | -40.35031 | 15116 ft | 382 kts | 327° |
| 2026-04-29 17:52 | -9.97419 | -40.36567 | 14684 ft | 379 kts | 327° |
| 2026-04-29 17:52 | -9.95961 | -40.37598 | 14390 ft | 377 kts | 327° |
| 2026-04-29 17:52 | -9.93121 | -40.39606 | 13809 ft | 374 kts | 327° |
| 2026-04-29 17:52 | -9.90996 | -40.41109 | 13407 ft | 371 kts | 327° |
| 2026-04-29 17:53 | -9.88879 | -40.42605 | 12922 ft | 370 kts | 326° |
| 2026-04-29 17:53 | -9.86766 | -40.44098 | 12491 ft | 368 kts | 326° |
| 2026-04-29 17:53 | -9.84671 | -40.45579 | 12055 ft | 366 kts | 326° |
| 2026-04-29 17:53 | -9.82592 | -40.47048 | 11634 ft | 363 kts | 326° |
| 2026-04-29 17:54 | -9.80527 | -40.48506 | 11213 ft | 360 kts | 326° |
| 2026-04-29 17:54 | -9.78478 | -40.49953 | 10793 ft | 358 kts | 326° |
| 2026-04-29 17:54 | -9.76475 | -40.51368 | 10559 ft | 350 kts | 326° |
| 2026-04-29 17:54 | -9.74610 | -40.52685 | 10408 ft | 341 kts | 326° |
| 2026-04-29 17:55 | -9.72687 | -40.54044 | 10251 ft | 332 kts | 326° |
| 2026-04-29 17:55 | -9.70818 | -40.55363 | 10107 ft | 323 kts | 326° |
| 2026-04-29 17:55 | -9.68997 | -40.56649 | 9969 ft | 314 kts | 326° |
| 2026-04-29 17:55 | -9.67238 | -40.57890 | 9926 ft | 303 kts | 326° |
| 2026-04-29 17:56 | -9.65491 | -40.59123 | 9457 ft | 307 kts | 326° |
| 2026-04-29 17:56 | -9.63734 | -40.60361 | 9095 ft | 308 kts | 326° |
| 2026-04-29 17:56 | -9.61977 | -40.61600 | 8787 ft | 307 kts | 326° |
| 2026-04-29 17:56 | -9.60230 | -40.62833 | 8471 ft | 306 kts | 326° |
| 2026-04-29 17:57 | -9.58485 | -40.64063 | 8164 ft | 305 kts | 326° |
| 2026-04-29 17:57 | -9.56742 | -40.65293 | 7849 ft | 305 kts | 326° |
| 2026-04-29 17:57 | -9.55004 | -40.66518 | 7535 ft | 304 kts | 326° |
| 2026-04-29 17:57 | -9.53855 | -40.67328 | 7325 ft | 303 kts | 326° |
| 2026-04-29 17:58 | -9.52128 | -40.68546 | 7012 ft | 302 kts | 326° |
| 2026-04-29 17:58 | -9.49865 | -40.70142 | 6609 ft | 293 kts | 326° |
| 2026-04-29 17:58 | -9.48212 | -40.71308 | 6313 ft | 285 kts | 326° |
| 2026-04-29 17:58 | -9.47137 | -40.72066 | 6259 ft | 271 kts | 326° |
| 2026-04-29 17:59 | -9.45642 | -40.73120 | 6119 ft | 254 kts | 326° |
| 2026-04-29 17:59 | -9.44225 | -40.74118 | 6016 ft | 241 kts | 326° |
| 2026-04-29 17:59 | -9.42869 | -40.75073 | 5633 ft | 242 kts | 326° |
| 2026-04-29 17:59 | -9.41487 | -40.76045 | 5259 ft | 243 kts | 326° |
| 2026-04-29 18:00 | -9.40000 | -40.76742 | 5059 ft | 230 kts | 356° |
| 2026-04-29 18:00 | -9.38475 | -40.76650 | 4967 ft | 213 kts | 19° |
| 2026-04-29 18:00 | -9.37077 | -40.76201 | 4882 ft | 209 kts | 23° |
| 2026-04-29 18:00 | -9.35691 | -40.75702 | 4584 ft | 212 kts | 23° |
| 2026-04-29 18:01 | -9.34348 | -40.75224 | 4492 ft | 199 kts | 23° |
| 2026-04-29 18:01 | -9.33056 | -40.74768 | 4434 ft | 195 kts | 23° |
| 2026-04-29 18:01 | -9.31838 | -40.74205 | 4354 ft | 190 kts | 47° |
| 2026-04-29 18:01 | -9.31309 | -40.73070 | 4321 ft | 181 kts | 92° |
| 2026-04-29 18:02 | -9.31424 | -40.71776 | 4089 ft | 187 kts | 102° |
| 2026-04-29 18:02 | -9.31690 | -40.70491 | 3839 ft | 185 kts | 104° |
| 2026-04-29 18:02 | -9.32030 | -40.69255 | 3594 ft | 177 kts | 109° |
| 2026-04-29 18:02 | -9.32413 | -40.68119 | 3408 ft | 162 kts | 110° |
| 2026-04-29 18:03 | -9.32771 | -40.67078 | 3163 ft | 154 kts | 110° |
| 2026-04-29 18:03 | -9.33122 | -40.66053 | 2949 ft | 154 kts | 110° |
| 2026-04-29 18:03 | -9.33471 | -40.65031 | 2762 ft | 153 kts | 110° |
| 2026-04-29 18:03 | -9.33818 | -40.64016 | 2559 ft | 157 kts | 109° |
| 2026-04-29 18:04 | -9.34181 | -40.62953 | 2353 ft | 161 kts | 109° |
| 2026-04-29 18:04 | -9.34544 | -40.61888 | 2130 ft | 158 kts | 109° |
| 2026-04-29 18:04 | -9.34904 | -40.60835 | 1922 ft | 158 kts | 109° |
| 2026-04-29 18:04 | -9.35263 | -40.59782 | 1713 ft | 159 kts | 109° |
| 2026-04-29 18:05 | -9.35627 | -40.58723 | 1476 ft | 159 kts | 109° |
| 2026-04-29 18:05 | -9.35989 | -40.57666 | 1280 ft | 155 kts | 109° |
| 2026-04-29 18:05 | -9.36303 | -40.56753 | 1271 ft | 110 kts | 109° |
| 2026-04-29 18:05 | -9.36483 | -40.56233 | 1270 ft | 47 kts | 109° |
| 2026-04-29 18:06 | -9.36548 | -40.56040 | 1269 ft | 21 kts | 109° |
| 2026-04-29 18:06 | -9.36598 | -40.55956 | 1269 ft | 11 kts | 164° |
| 2026-04-29 18:06 | -9.36674 | -40.55972 | 1269 ft | 11 kts | 200° |
| 2026-04-29 18:06 | -9.36731 | -40.56015 | 1269 ft | 11 kts | 265° |
| 2026-04-29 18:07 | -9.36708 | -40.56087 | 1271 ft | 11 kts | 289° |
| 2026-04-29 18:07 | -9.36685 | -40.56156 | 1268 ft | 10 kts | 289° |
| 2026-04-29 18:07 | -9.36662 | -40.56224 | 1270 ft | 10 kts | 289° |
| 2026-04-29 18:07 | -9.36639 | -40.56290 | 1268 ft | 10 kts | 290° |
| 2026-04-29 18:08 | -9.36616 | -40.56353 | 1268 ft | 9 kts | 290° |
| 2026-04-29 18:08 | -9.36594 | -40.56415 | 1269 ft | 9 kts | 290° |
| 2026-04-29 18:08 | -9.36572 | -40.56476 | 1268 ft | 9 kts | 290° |
| 2026-04-29 18:08 | -9.36553 | -40.56532 | 1268 ft | 5 kts | 281° |
| 2026-04-29 18:09 | -9.36576 | -40.56552 | 1268 ft | 5 kts | 200° |
| 2026-04-29 18:09 | -9.36589 | -40.56556 | 1268 ft | 0 kts | 198° |